createdAt,value
2023-03-17T00:40:49.384Z,2.86
2023-03-17T00:41:53.403Z,2.94
2023-03-17T00:43:06.485Z,2.88
2023-03-17T00:44:11.370Z,2.76
2023-03-17T00:45:16.836Z,2.87
2023-03-17T02:46:40.346Z,2.41
2023-03-17T02:47:45.648Z,2.49
2023-03-17T02:48:51.507Z,2.59
2023-03-17T02:49:58.340Z,2.70
2023-03-17T02:51:02.414Z,2.64
2023-03-17T02:52:08.603Z,2.64
2023-03-17T02:53:14.318Z,2.73
2023-03-17T02:54:20.653Z,2.60
2023-03-17T02:55:26.024Z,2.60
2023-03-17T02:56:32.113Z,2.52
2023-03-17T02:57:35.028Z,2.58
2023-03-17T02:58:39.962Z,2.57
2023-03-17T02:59:45.891Z,2.64
2023-03-17T03:00:51.960Z,2.61
2023-03-17T03:01:59.285Z,2.74
2023-03-17T03:03:09.412Z,2.71
2023-03-17T03:04:15.889Z,2.66
2023-03-17T03:05:29.166Z,2.61
2023-03-17T03:06:36.097Z,2.63
2023-03-17T03:07:46.224Z,2.54
2023-03-17T03:08:53.643Z,2.62
2023-03-17T03:10:00.210Z,2.76
2023-03-17T03:11:06.617Z,2.75
2023-03-17T03:12:19.903Z,2.64
2023-03-17T03:13:46.413Z,2.63
2023-03-17T03:14:53.328Z,2.78
2023-03-17T04:17:30.580Z,2.51
2023-03-17T04:18:35.862Z,2.48
2023-03-17T04:19:40.377Z,2.50
2023-03-17T04:20:58.403Z,2.64
2023-03-17T04:22:03.071Z,2.67
2023-03-17T04:23:12.086Z,2.62
2023-03-17T04:24:18.845Z,2.61
2023-03-17T04:25:22.833Z,2.58
2023-03-17T04:26:30.410Z,2.65
2023-03-17T04:27:36.527Z,2.65
2023-03-17T04:28:41.785Z,2.74
2023-03-17T04:29:50.094Z,2.72
2023-03-17T04:31:08.442Z,2.78
2023-03-17T04:32:15.529Z,2.71
2023-03-17T04:33:26.991Z,2.74
2023-03-17T04:47:44.532Z,2.58
2023-03-17T04:48:58.685Z,2.56
2023-03-17T04:50:08.448Z,2.66
2023-03-17T04:51:13.763Z,2.64
2023-03-17T04:52:17.600Z,2.69
2023-03-17T04:53:20.920Z,2.75
2023-03-17T04:54:24.695Z,2.65
2023-03-17T04:55:35.003Z,2.80
2023-03-17T04:56:41.337Z,2.61
2023-03-17T04:57:47.177Z,2.68
2023-03-17T04:58:55.263Z,2.80
2023-03-17T05:00:05.408Z,2.67
2023-03-17T05:01:13.912Z,2.65
2023-03-17T05:02:17.372Z,2.65
2023-03-17T05:03:44.966Z,2.71
2023-03-17T05:10:58.256Z,2.94
2023-03-17T05:12:04.609Z,3.01
2023-03-17T05:13:09.407Z,2.93
2023-03-17T05:14:22.850Z,3.07
2023-03-17T05:15:28.562Z,3.17
2023-03-17T05:16:36.734Z,3.03
2023-03-17T05:17:43.140Z,3.07
2023-03-17T05:18:47.444Z,3.02
2023-03-17T05:19:54.246Z,3.09
2023-03-17T05:21:09.712Z,3.03
2023-03-17T05:22:18.761Z,3.24
2023-03-17T05:23:26.322Z,3.18
2023-03-17T05:24:34.897Z,3.21
2023-03-17T05:25:42.525Z,3.37
2023-03-17T05:26:46.677Z,3.08
2023-03-17T05:27:52.115Z,3.26
2023-03-17T05:28:59.126Z,3.05
2023-03-17T05:30:05.775Z,3.10
2023-03-17T05:31:10.940Z,3.31
2023-03-17T05:32:15.544Z,2.96
2023-03-17T05:33:20.826Z,2.91
2023-03-17T05:34:30.700Z,2.94
2023-03-17T05:35:38.677Z,3.03
2023-03-17T05:36:45.321Z,3.25
2023-03-17T05:37:50.976Z,3.04
2023-03-17T05:38:54.472Z,2.95
2023-03-17T06:01:15.207Z,3.49
2023-03-17T06:02:24.024Z,3.50
2023-03-17T06:05:03.915Z,3.86
2023-03-17T06:06:13.877Z,3.69
2023-03-17T06:07:26.102Z,3.84
2023-03-17T06:08:47.180Z,3.81
2023-03-17T06:10:02.708Z,3.69
2023-03-17T06:11:13.210Z,3.73
2023-03-17T06:12:22.363Z,3.54
2023-03-17T06:13:46.808Z,3.64
2023-03-17T06:14:52.951Z,3.82
2023-03-17T06:16:01.758Z,3.81
2023-03-17T06:17:06.807Z,4.04
2023-03-17T06:18:12.700Z,3.81
2023-03-17T06:19:27.276Z,4.03
2023-03-17T06:20:37.236Z,4.25
2023-03-17T07:06:57.086Z,3.87
2023-03-17T07:11:44.119Z,4.15
2023-03-17T07:14:05.416Z,4.40
2023-03-17T07:15:31.906Z,4.66
2023-03-17T07:16:49.390Z,4.58
2023-03-17T07:18:44.673Z,4.60
2023-03-17T07:20:45.950Z,4.83
2023-03-17T07:24:09.117Z,4.98
2023-03-17T07:26:17.406Z,5.29
2023-03-17T07:27:44.069Z,5.04
2023-03-17T07:30:53.130Z,5.06
2023-03-17T07:32:11.999Z,4.95
2023-03-17T07:33:36.656Z,5.42
2023-03-17T07:34:48.451Z,5.54
2023-03-17T07:40:57.125Z,5.32
2023-03-17T07:42:16.665Z,5.41
2023-03-17T07:44:19.101Z,5.40
2023-03-17T07:47:44.436Z,5.63
2023-03-17T07:49:06.971Z,5.48
2023-03-17T07:50:50.071Z,5.84
2023-03-17T07:51:56.865Z,5.78
2023-03-17T07:53:12.176Z,5.75
2023-03-17T07:55:08.818Z,5.72
2023-03-17T07:57:54.564Z,5.90
2023-03-17T07:59:25.313Z,5.99
2023-03-17T08:00:56.901Z,6.11
2023-03-17T08:03:10.584Z,6.48
2023-03-17T08:04:34.666Z,6.55
2023-03-17T08:06:04.047Z,6.70
2023-03-17T08:07:45.779Z,6.64
2023-03-17T08:09:28.908Z,6.59
2023-03-17T08:10:42.064Z,6.50
2023-03-17T08:15:02.459Z,6.86
2023-03-17T08:16:18.008Z,7.10
2023-03-17T08:18:40.623Z,7.45
2023-03-17T08:21:43.416Z,8.01
2023-03-17T08:27:24.159Z,9.14
2023-03-17T08:34:00.293Z,8.75
2023-03-17T08:38:17.050Z,8.58
2023-03-17T08:44:02.135Z,8.15
2023-03-17T08:49:27.077Z,8.34
2023-03-17T08:56:37.682Z,8.00
2023-03-17T08:59:40.370Z,8.08
2023-03-17T09:05:23.219Z,7.63
2023-03-17T09:06:59.404Z,7.53
2023-03-17T09:11:59.212Z,7.32
2023-03-17T09:15:45.206Z,7.05
2023-03-17T09:21:57.672Z,7.57
2023-03-17T09:23:15.688Z,7.82
2023-03-17T09:25:30.625Z,7.42
2023-03-17T09:27:03.932Z,7.83
2023-03-17T09:30:08.355Z,7.78
2023-03-17T09:31:58.744Z,7.62
2023-03-17T09:36:42.931Z,6.97
2023-03-17T09:43:28.166Z,6.70
2023-03-17T09:50:00.714Z,6.22
2023-03-17T09:51:22.044Z,6.09
2023-03-17T09:52:44.732Z,5.93
2023-03-17T09:54:37.681Z,6.13
2023-03-17T09:56:57.437Z,6.12
2023-03-17T10:02:46.575Z,5.92
2023-03-17T10:05:57.399Z,6.06
2023-03-17T10:07:18.131Z,6.08
2023-03-17T10:09:56.234Z,6.03
2023-03-17T10:11:51.567Z,5.98
2023-03-17T10:13:17.971Z,5.98
2023-03-17T10:16:56.096Z,5.87
2023-03-17T10:18:23.717Z,5.98
2023-03-17T10:20:33.851Z,5.96
2023-03-17T10:21:57.456Z,6.04
2023-03-17T10:24:48.443Z,5.84
2023-03-17T10:26:08.459Z,5.71
2023-03-17T10:29:58.467Z,5.86
2023-03-17T10:31:40.460Z,5.94
2023-03-17T10:33:12.110Z,5.99
2023-03-17T10:34:26.346Z,5.94
2023-03-17T10:35:44.483Z,5.79
2023-03-17T10:37:12.558Z,5.73
2023-03-17T10:38:38.530Z,5.66
2023-03-17T10:41:02.383Z,5.61
2023-03-17T10:44:58.694Z,5.42
2023-03-17T10:46:42.385Z,5.50
2023-03-17T10:48:54.020Z,5.57
2023-03-17T10:50:49.459Z,5.72
2023-03-17T10:52:01.630Z,5.63
2023-03-17T10:53:30.392Z,5.68
2023-03-17T10:54:54.640Z,5.79
2023-03-17T10:56:26.717Z,5.55
2023-03-17T10:57:44.848Z,5.51
2023-03-17T10:58:59.479Z,5.47
2023-03-17T11:00:27.718Z,5.37
2023-03-17T11:05:53.414Z,5.32
2023-03-17T11:07:18.885Z,5.15
2023-03-17T11:08:41.411Z,5.21
2023-03-17T11:10:40.307Z,5.41
2023-03-17T11:11:53.113Z,5.37
2023-03-17T11:13:07.258Z,5.37
2023-03-17T11:14:22.100Z,5.38
2023-03-17T11:16:12.537Z,5.32
2023-03-17T11:17:57.537Z,5.37
2023-03-17T11:19:16.317Z,5.40
2023-03-17T11:21:07.077Z,5.33
2023-03-17T11:22:57.348Z,5.43
2023-03-17T11:26:09.485Z,5.45
2023-03-17T11:27:38.659Z,5.52
2023-03-17T11:29:06.144Z,5.58
2023-03-17T11:30:35.164Z,5.50
2023-03-17T11:32:20.342Z,5.37
2023-03-17T11:34:23.696Z,5.38
2023-03-17T11:36:01.256Z,5.54
2023-03-17T11:37:45.549Z,5.60
2023-03-17T11:39:15.931Z,5.62
2023-03-17T11:40:47.146Z,5.71
2023-03-17T11:42:23.867Z,5.75
2023-03-17T11:44:04.284Z,5.78
2023-03-17T11:48:06.409Z,5.65
2023-03-17T11:49:29.362Z,5.68
2023-03-17T11:51:03.111Z,5.70
2023-03-17T11:52:52.896Z,5.76
2023-03-17T11:54:50.283Z,5.79
2023-03-17T11:56:27.145Z,5.90
2023-03-17T11:58:23.931Z,5.96
2023-03-17T11:59:56.775Z,6.07
2023-03-17T12:01:12.953Z,6.00
2023-03-17T12:03:01.700Z,5.99
2023-03-17T12:04:39.530Z,5.83
2023-03-17T12:05:56.077Z,5.96
2023-03-17T12:07:34.795Z,6.04
2023-03-17T12:09:28.173Z,5.99
2023-03-17T12:10:50.938Z,5.95
2023-03-17T12:13:36.392Z,6.01
2023-03-17T12:15:04.871Z,6.08
2023-03-17T12:16:25.947Z,6.02
2023-03-17T12:17:44.565Z,6.04
2023-03-17T12:19:18.482Z,5.95
2023-03-17T12:21:04.192Z,6.07
2023-03-17T12:22:36.680Z,6.20
2023-03-17T12:24:00.885Z,6.24
2023-03-17T12:25:58.346Z,6.16
2023-03-17T12:27:48.083Z,6.02
2023-03-17T12:29:01.935Z,6.15
2023-03-17T12:30:50.813Z,6.12
2023-03-17T12:32:10.450Z,6.14
2023-03-17T12:34:17.882Z,6.11
2023-03-17T12:35:33.484Z,5.95
2023-03-17T12:37:23.327Z,5.94
2023-03-17T12:38:40.397Z,6.15
2023-03-17T12:42:17.975Z,6.07
2023-03-17T12:44:18.420Z,5.91
2023-03-17T12:45:38.978Z,6.00
2023-03-17T12:47:22.632Z,6.06
2023-03-17T12:49:19.498Z,6.08
2023-03-17T12:52:30.957Z,6.07
2023-03-17T12:53:45.791Z,6.02
2023-03-17T12:54:56.111Z,6.02
2023-03-17T12:56:16.356Z,6.06
2023-03-17T12:57:36.594Z,6.00
2023-03-17T12:59:35.658Z,5.97
2023-03-17T13:01:09.191Z,6.09
2023-03-17T13:02:17.864Z,6.07
2023-03-17T13:03:34.291Z,6.03
2023-03-17T13:06:23.534Z,6.01
2023-03-17T13:07:51.060Z,5.89
2023-03-17T13:09:33.219Z,5.90
2023-03-17T13:12:51.599Z,5.83
2023-03-17T13:14:36.090Z,5.81
2023-03-17T13:16:08.735Z,5.92
2023-03-17T13:17:29.746Z,5.81
2023-03-17T13:18:38.381Z,5.82
2023-03-17T13:20:11.570Z,5.82
2023-03-17T13:21:25.993Z,5.81
2023-03-17T13:22:57.029Z,5.78
2023-03-17T13:24:31.587Z,5.75
2023-03-17T13:25:44.878Z,5.79
2023-03-17T13:27:11.017Z,5.68
2023-03-17T13:28:26.040Z,5.72
2023-03-17T13:30:04.004Z,5.71
2023-03-17T13:31:38.395Z,5.65
2023-03-17T13:32:59.754Z,5.68
2023-03-17T13:34:26.357Z,5.67
2023-03-17T13:36:16.896Z,5.65
2023-03-17T13:37:44.408Z,5.60
2023-03-17T13:39:17.611Z,5.64
2023-03-17T13:41:01.471Z,5.60
2023-03-17T13:42:45.097Z,5.57
2023-03-17T13:44:42.010Z,5.54
2023-03-17T13:46:19.439Z,5.55
2023-03-17T13:47:57.369Z,5.47
2023-03-17T13:49:23.480Z,5.48
2023-03-17T13:50:34.848Z,5.49
2023-03-17T13:51:59.449Z,5.52
2023-03-17T13:53:16.410Z,5.55
2023-03-17T13:54:39.633Z,5.49
2023-03-17T13:56:19.204Z,5.51
2023-03-17T13:59:13.852Z,5.43
2023-03-17T14:00:53.324Z,5.44
2023-03-17T14:02:03.613Z,5.48
2023-03-17T14:05:02.951Z,5.40
2023-03-17T14:06:20.474Z,5.43
2023-03-17T14:07:29.844Z,5.44
2023-03-17T14:09:22.131Z,5.43
2023-03-17T14:10:36.281Z,5.41
2023-03-17T14:14:09.870Z,5.43
2023-03-17T14:15:22.986Z,5.45
2023-03-17T14:16:50.987Z,5.35
2023-03-17T14:18:11.614Z,5.33
2023-03-17T14:19:32.266Z,5.40
2023-03-17T14:20:53.746Z,5.38
2023-03-17T14:22:21.791Z,5.30
2023-03-17T14:23:27.198Z,5.25
2023-03-17T14:24:48.530Z,5.24
2023-03-17T14:26:03.858Z,5.26
2023-03-17T14:27:27.679Z,5.16
2023-03-17T14:28:39.647Z,5.17
2023-03-17T14:29:46.242Z,5.15
2023-03-17T14:31:03.939Z,5.15
2023-03-17T14:32:20.029Z,5.10
2023-03-17T14:33:29.236Z,5.11
2023-03-17T14:34:33.286Z,5.09
2023-03-17T14:35:54.908Z,5.06
2023-03-17T14:37:16.629Z,5.07
2023-03-17T14:38:29.344Z,5.06
2023-03-17T14:39:57.167Z,5.08
2023-03-17T14:41:27.552Z,5.05
2023-03-17T14:42:33.826Z,4.96
2023-03-17T14:44:03.761Z,4.87
2023-03-17T14:45:21.172Z,4.91
2023-03-17T14:46:39.294Z,4.85
2023-03-17T14:47:48.119Z,4.81
2023-03-17T14:49:19.826Z,4.83
2023-03-17T14:50:36.231Z,4.79
2023-03-17T14:51:47.792Z,4.76
2023-03-17T14:52:55.321Z,4.73
2023-03-17T14:54:27.877Z,4.70
2023-03-17T14:55:43.817Z,4.72
2023-03-17T14:57:05.068Z,4.70
2023-03-17T14:58:35.358Z,4.67
2023-03-17T14:59:58.791Z,4.68
2023-03-17T15:01:38.385Z,4.67
2023-03-17T15:03:12.254Z,4.59
2023-03-17T15:04:29.704Z,4.59
2023-03-17T15:05:46.706Z,4.58
2023-03-17T15:07:03.165Z,4.58
2023-03-17T15:08:51.573Z,4.56
2023-03-17T15:10:07.268Z,4.51
2023-03-17T15:11:37.174Z,4.50
2023-03-17T15:12:44.265Z,4.49
2023-03-17T15:14:21.181Z,4.47
2023-03-17T15:15:35.347Z,4.48
2023-03-17T15:17:03.183Z,4.45
2023-03-17T15:18:21.158Z,4.38
2023-03-17T15:19:41.351Z,4.35
2023-03-17T15:20:56.040Z,4.35
2023-03-17T15:22:44.250Z,4.30
2023-03-17T15:23:49.088Z,4.25
2023-03-17T15:25:02.994Z,4.27
2023-03-17T15:27:36.469Z,4.19
2023-03-17T15:28:46.575Z,4.16
2023-03-17T15:29:55.254Z,4.14
2023-03-17T15:31:17.407Z,4.10
2023-03-17T15:32:29.318Z,4.08
2023-03-17T15:33:40.969Z,4.09
2023-03-17T15:34:56.614Z,4.08
2023-03-17T15:36:10.067Z,4.08
2023-03-17T15:37:45.915Z,4.01
2023-03-17T15:39:00.995Z,4.04
2023-03-17T15:40:18.162Z,4.03
2023-03-17T15:41:39.740Z,4.00
2023-03-17T15:43:14.896Z,3.97
2023-03-17T15:44:30.704Z,3.95
2023-03-17T15:45:37.579Z,3.94
2023-03-17T15:50:48.835Z,3.82
2023-03-17T15:52:04.819Z,3.78
2023-03-17T15:53:16.042Z,3.76
2023-03-17T15:57:04.387Z,3.65
2023-03-17T15:58:29.759Z,3.60
2023-03-17T15:59:40.767Z,3.63
2023-03-17T16:00:55.152Z,3.56
2023-03-17T16:02:25.601Z,3.55
2023-03-17T16:03:32.953Z,3.54
2023-03-17T16:04:41.179Z,3.53
2023-03-17T16:05:54.321Z,3.58
2023-03-17T16:07:13.758Z,3.51
2023-03-17T16:08:21.246Z,3.51
2023-03-17T16:11:35.570Z,3.51
2023-03-17T16:13:05.342Z,3.50
2023-03-17T16:14:31.352Z,3.48
2023-03-17T16:15:44.209Z,3.45
2023-03-17T16:17:41.889Z,3.42
2023-03-17T16:18:47.377Z,3.36
2023-03-17T16:19:56.324Z,3.34
2023-03-17T16:21:26.295Z,3.33
2023-03-17T16:22:36.885Z,3.34
2023-03-17T16:23:42.767Z,3.35
2023-03-17T16:24:50.452Z,3.31
2023-03-17T16:26:11.784Z,3.32
2023-03-17T16:28:16.557Z,3.36
2023-03-17T16:30:08.833Z,3.38
2023-03-17T16:31:24.668Z,3.22
2023-03-17T16:32:33.894Z,3.21
2023-03-17T16:34:34.193Z,3.18
2023-03-17T16:35:42.428Z,3.19
2023-03-17T16:37:11.554Z,3.16
2023-03-17T16:38:28.504Z,3.16
2023-03-17T16:39:45.993Z,3.11
2023-03-17T16:41:10.273Z,3.13
2023-03-17T16:42:27.722Z,3.13
2023-03-17T16:43:39.988Z,3.10
2023-03-17T16:44:44.447Z,3.10
2023-03-17T16:46:02.695Z,3.10
2023-03-17T16:47:11.946Z,3.08
2023-03-17T16:48:21.124Z,3.13
2023-03-17T16:49:35.114Z,3.11
2023-03-17T16:50:51.524Z,3.10
2023-03-17T16:52:01.257Z,3.06
2023-03-17T16:53:19.351Z,3.08
2023-03-17T16:54:31.780Z,3.07
2023-03-17T16:55:41.075Z,3.05
2023-03-17T16:57:00.930Z,3.08
2023-03-17T16:58:19.097Z,3.03
2023-03-17T16:59:32.507Z,2.99
2023-03-17T17:00:53.646Z,2.95
2023-03-17T17:02:11.659Z,2.93
2023-03-17T17:03:15.985Z,2.92
2023-03-17T17:04:24.092Z,2.92
2023-03-17T17:05:33.355Z,2.91
2023-03-17T17:06:38.479Z,2.86
2023-03-17T17:07:45.502Z,2.89
2023-03-17T17:09:15.900Z,2.85
2023-03-17T17:10:35.235Z,2.87
2023-03-17T17:11:48.334Z,2.85
2023-03-17T17:12:56.397Z,2.84
2023-03-17T17:14:01.435Z,2.83
2023-03-17T17:15:08.905Z,2.82
2023-03-17T17:16:52.436Z,2.81
2023-03-17T17:18:26.560Z,2.73
2023-03-17T17:19:39.018Z,2.73
2023-03-17T17:20:43.978Z,2.74
2023-03-17T17:21:55.524Z,2.74
2023-03-17T17:23:04.479Z,2.71
2023-03-17T17:25:44.415Z,2.73
2023-03-17T17:26:51.642Z,2.72
2023-03-17T17:27:59.026Z,2.71
2023-03-17T17:29:04.095Z,2.69
2023-03-17T17:31:47.643Z,2.67
2023-03-17T17:33:10.144Z,2.68
2023-03-17T17:34:32.324Z,2.66
2023-03-17T17:35:42.620Z,2.68
2023-03-17T17:37:02.657Z,2.63
2023-03-17T17:38:44.909Z,2.59
2023-03-17T17:39:58.420Z,2.57
2023-03-17T17:41:09.013Z,2.56
2023-03-17T17:42:18.695Z,2.53
2023-03-17T17:43:37.048Z,2.53
2023-03-17T17:44:53.691Z,2.49
2023-03-17T17:46:05.179Z,2.52
2023-03-17T17:47:11.596Z,2.49
2023-03-17T17:48:24.461Z,2.47
2023-03-17T17:49:40.515Z,2.44
2023-03-17T17:50:51.915Z,2.43
2023-03-17T17:52:07.455Z,2.41
2023-03-17T17:55:15.528Z,2.43
2023-03-17T17:56:22.022Z,2.40
2023-03-17T17:57:31.831Z,2.38
2023-03-17T17:58:41.282Z,2.39
2023-03-17T17:59:49.406Z,2.36
2023-03-17T18:01:16.544Z,2.38
2023-03-17T18:02:30.579Z,2.38
2023-03-17T18:03:45.624Z,2.35
2023-03-17T18:04:52.368Z,2.34
2023-03-17T18:06:06.049Z,2.31
2023-03-17T18:07:16.505Z,2.30
2023-03-17T18:08:23.657Z,2.27
2023-03-17T18:09:35.683Z,2.29
2023-03-17T18:10:54.533Z,2.24
2023-03-17T18:13:39.086Z,2.24
2023-03-17T18:14:49.872Z,2.21
2023-03-17T18:15:54.297Z,2.19
2023-03-17T18:17:23.362Z,2.16
2023-03-17T18:18:30.506Z,2.14
2023-03-17T18:19:36.637Z,2.15
2023-03-17T18:20:57.752Z,2.15
2023-03-17T18:22:09.408Z,2.14
2023-03-17T18:23:21.680Z,2.11
2023-03-17T18:24:42.171Z,2.12
2023-03-17T18:26:04.664Z,2.11
2023-03-17T18:27:44.890Z,2.07
2023-03-17T18:29:05.101Z,2.09
2023-03-17T18:30:26.263Z,2.08
2023-03-17T18:33:36.017Z,2.02
2023-03-17T18:35:35.368Z,2.02
2023-03-17T18:38:18.039Z,1.96
2023-03-17T18:39:26.506Z,1.94
2023-03-17T18:40:54.622Z,1.95
2023-03-17T18:42:25.025Z,1.93
2023-03-17T18:43:43.130Z,1.92
2023-03-17T18:45:10.046Z,1.89
2023-03-17T18:46:29.257Z,1.87
2023-03-17T18:47:40.096Z,1.87
2023-03-17T18:49:09.368Z,1.86
2023-03-17T18:50:30.110Z,1.82
2023-03-17T18:51:40.905Z,1.82
2023-03-17T18:53:36.096Z,1.81
2023-03-17T18:54:49.690Z,1.78
2023-03-17T18:56:23.429Z,1.74
2023-03-17T18:57:54.120Z,1.72
2023-03-17T18:59:00.400Z,1.69
2023-03-17T19:02:36.979Z,1.63
2023-03-17T19:03:48.464Z,1.62
2023-03-17T19:05:04.471Z,1.60
2023-03-17T19:06:17.797Z,1.57
2023-03-17T19:07:22.928Z,1.57
2023-03-17T19:08:53.369Z,1.57
2023-03-17T19:10:01.745Z,1.59
2023-03-17T19:11:09.174Z,1.56
2023-03-17T19:12:15.053Z,1.56
2023-03-17T19:13:24.956Z,1.52
2023-03-17T19:14:28.994Z,1.54
2023-03-17T19:15:34.915Z,1.50
2023-03-17T19:16:41.407Z,1.49
2023-03-17T19:17:45.505Z,1.50
2023-03-17T19:18:53.073Z,1.47
2023-03-17T19:19:59.664Z,1.47
2023-03-17T19:21:03.548Z,1.44
2023-03-17T19:22:08.701Z,1.44
2023-03-17T19:23:16.871Z,1.44
2023-03-17T19:24:24.260Z,1.41
2023-03-17T19:25:28.793Z,1.36
2023-03-17T19:26:36.253Z,1.39
2023-03-17T19:27:40.437Z,1.37
2023-03-17T19:28:50.393Z,1.36
2023-03-17T19:29:56.753Z,1.37
2023-03-17T19:31:04.222Z,1.34
2023-03-17T19:32:10.380Z,1.33
2023-03-17T19:33:22.294Z,1.34
2023-03-17T19:34:31.484Z,1.33
2023-03-17T19:35:38.910Z,1.31
2023-03-17T19:36:47.992Z,1.32
2023-03-17T19:37:56.015Z,1.31
2023-03-17T19:39:09.489Z,1.29
2023-03-17T19:40:15.309Z,1.26
2023-03-17T19:41:22.421Z,1.30
2023-03-17T19:42:33.803Z,1.26
2023-03-17T19:43:52.991Z,1.25
2023-03-17T19:45:03.469Z,1.27
2023-03-17T19:46:15.315Z,1.23
2023-03-17T19:47:24.555Z,1.22
2023-03-17T19:48:27.946Z,1.25
2023-03-17T19:49:36.260Z,1.21
2023-03-17T19:50:40.909Z,1.18
2023-03-17T19:51:48.119Z,1.17
2023-03-17T19:52:55.295Z,1.15
2023-03-17T19:54:05.650Z,1.14
2023-03-17T19:55:11.439Z,1.13
2023-03-17T19:56:18.684Z,1.10
2023-03-17T19:57:26.077Z,1.12
2023-03-17T19:58:32.659Z,1.12
2023-03-17T19:59:38.105Z,1.11
2023-03-17T20:00:45.985Z,1.07
2023-03-17T20:02:17.745Z,1.06
2023-03-17T20:03:26.388Z,1.05
2023-03-17T20:04:53.023Z,1.01
2023-03-17T20:05:57.440Z,1.02
2023-03-17T20:07:05.452Z,0.99
2023-03-17T20:08:10.574Z,1.00
2023-03-17T20:09:15.005Z,0.99
2023-03-17T20:10:21.758Z,1.03
2023-03-17T20:11:29.050Z,0.98
2023-03-17T20:12:34.690Z,1.00
2023-03-17T20:13:58.968Z,0.96
2023-03-17T20:15:02.579Z,0.93
2023-03-17T20:16:09.546Z,0.94
2023-03-17T20:17:17.192Z,0.93
2023-03-17T20:18:24.299Z,0.94
2023-03-17T20:19:28.095Z,0.93
2023-03-17T20:20:33.463Z,0.95
2023-03-17T20:21:44.604Z,0.92
2023-03-17T20:22:52.747Z,0.89
2023-03-17T20:24:00.239Z,0.89
2023-03-17T20:25:06.692Z,0.89
2023-03-17T20:26:10.766Z,0.89
2023-03-17T20:27:19.274Z,0.88
2023-03-17T20:28:25.378Z,0.88
2023-03-17T20:29:29.399Z,0.86
2023-03-17T20:30:34.243Z,0.85
2023-03-17T20:31:41.442Z,0.82
2023-03-17T20:32:51.939Z,0.84
2023-03-17T20:33:58.502Z,0.82
2023-03-17T20:35:07.990Z,0.83
2023-03-17T20:36:13.066Z,0.80
2023-03-17T20:37:16.791Z,0.77
2023-03-17T20:38:24.879Z,0.74
2023-03-17T20:39:28.755Z,0.77
2023-03-17T20:40:39.093Z,0.75
2023-03-17T20:41:46.046Z,0.80
2023-03-17T20:42:49.912Z,0.75
2023-03-17T20:43:55.086Z,0.75
2023-03-17T20:45:03.233Z,0.73
2023-03-17T20:46:19.378Z,0.68
2023-03-17T20:47:25.731Z,0.70
2023-03-17T20:48:34.981Z,0.72
2023-03-17T20:49:39.916Z,0.72
2023-03-17T20:50:50.213Z,0.68
2023-03-17T20:51:53.416Z,0.70
2023-03-17T20:52:58.427Z,0.64
2023-03-17T20:54:09.558Z,0.68
2023-03-17T20:55:15.434Z,0.66
2023-03-17T20:56:23.395Z,0.66
2023-03-17T20:57:28.202Z,0.64
2023-03-17T20:58:32.368Z,0.67
2023-03-17T20:59:43.530Z,0.66
2023-03-17T21:00:55.817Z,0.68
2023-03-17T21:01:59.948Z,0.67
2023-03-17T21:03:06.990Z,0.68
2023-03-17T21:04:16.603Z,0.71
2023-03-17T21:05:32.349Z,0.68
2023-03-17T21:06:42.709Z,0.67
2023-03-17T21:07:49.503Z,0.67
2023-03-17T21:08:53.638Z,0.68
2023-03-17T21:09:58.440Z,0.64
2023-03-17T21:11:10.214Z,0.64
2023-03-17T21:12:21.661Z,0.62
2023-03-17T21:13:26.588Z,0.57
2023-03-17T21:14:37.208Z,0.60
2023-03-17T21:15:42.778Z,0.55
2023-03-17T21:16:48.515Z,0.56
2023-03-17T21:17:56.927Z,0.53
2023-03-17T21:19:08.581Z,0.57
2023-03-17T21:20:15.934Z,0.55
2023-03-17T21:21:23.168Z,0.57
2023-03-17T21:22:26.791Z,0.53
2023-03-17T21:23:29.636Z,0.51
2023-03-17T21:24:37.310Z,0.53
2023-03-17T21:25:47.243Z,0.51
2023-03-17T21:26:53.166Z,0.49
2023-03-17T21:28:05.219Z,0.53
2023-03-17T21:29:11.381Z,0.55
2023-03-17T21:30:21.832Z,0.50
2023-03-17T21:31:27.472Z,0.50
2023-03-17T21:32:33.465Z,0.47
2023-03-17T21:33:38.593Z,0.45
2023-03-17T21:34:46.266Z,0.46
2023-03-17T21:35:52.678Z,0.42
2023-03-17T21:37:00.731Z,0.42
2023-03-17T21:38:07.543Z,0.45
2023-03-17T21:39:12.455Z,0.37
2023-03-17T21:40:37.590Z,0.43
2023-03-17T21:42:04.033Z,0.39
2023-03-17T21:43:07.254Z,0.34
2023-03-17T21:44:13.750Z,0.38
2023-03-17T21:45:17.042Z,0.36
2023-03-17T21:46:20.171Z,0.35
2023-03-17T21:47:27.646Z,0.33
2023-03-17T21:48:31.438Z,0.32
2023-03-17T21:49:44.221Z,0.32
2023-03-17T21:50:49.989Z,0.32
2023-03-17T21:51:53.248Z,0.30
2023-03-17T21:52:56.591Z,0.28
2023-03-17T21:54:05.310Z,0.28
2023-03-17T21:55:08.602Z,0.25
2023-03-17T21:56:12.656Z,0.29
2023-03-17T21:57:17.321Z,0.26
2023-03-17T21:58:22.746Z,0.23
2023-03-17T21:59:32.315Z,0.20
2023-03-17T22:00:45.130Z,0.14
2023-03-17T22:01:54.142Z,0.20
2023-03-17T22:03:01.377Z,0.21
2023-03-17T22:04:09.231Z,0.16
2023-03-17T22:05:39.583Z,0.10
2023-03-17T22:06:48.916Z,0.15
2023-03-17T22:08:01.893Z,0.17
2023-03-17T22:09:11.460Z,0.15
2023-03-17T22:10:19.310Z,0.17
2023-03-17T22:11:42.082Z,0.16
2023-03-17T22:12:45.290Z,0.12
2023-03-17T22:13:50.135Z,0.13
2023-03-17T22:14:59.185Z,0.13
2023-03-17T22:16:06.801Z,0.17
2023-03-17T22:17:10.641Z,0.14
2023-03-17T22:18:19.174Z,0.18
2023-03-17T22:19:24.049Z,0.15
2023-03-17T22:20:30.399Z,0.09
2023-03-17T22:21:34.201Z,0.07
2023-03-17T22:22:39.086Z,0.12
2023-03-17T22:23:43.260Z,0.07
2023-03-17T22:24:49.538Z,0.04
2023-03-17T22:25:57.844Z,0.03
2023-03-17T22:27:10.628Z,0.09
2023-03-17T22:28:19.080Z,0.02
2023-03-17T22:29:24.586Z,0.00
2023-03-17T22:30:31.029Z,0.04
2023-03-17T22:31:36.825Z,0.04
2023-03-17T22:32:43.398Z,-0.03
2023-03-17T22:33:52.848Z,-0.03
2023-03-17T22:34:58.648Z,-0.08
2023-03-17T22:36:04.505Z,-0.07
2023-03-17T22:37:16.069Z,-0.03
2023-03-17T22:38:21.934Z,-0.05
2023-03-17T22:39:27.962Z,-0.07
2023-03-17T22:40:31.918Z,-0.06
2023-03-17T22:41:41.491Z,-0.07
2023-03-17T22:42:47.097Z,-0.08
2023-03-17T22:43:51.544Z,-0.04
2023-03-17T22:44:56.413Z,-0.03
2023-03-17T22:46:02.885Z,-0.06
2023-03-17T22:47:09.158Z,-0.06
2023-03-17T22:48:12.627Z,-0.06
2023-03-17T22:49:16.764Z,-0.11
2023-03-17T22:50:23.569Z,-0.11
2023-03-17T22:51:28.843Z,-0.08
2023-03-17T22:52:35.370Z,-0.14
2023-03-17T22:53:40.060Z,-0.17
2023-03-17T22:54:45.723Z,-0.16
2023-03-17T22:55:52.468Z,-0.17
2023-03-17T22:56:56.361Z,-0.16
2023-03-17T22:58:01.468Z,-0.15
2023-03-17T22:59:04.916Z,-0.16
2023-03-17T23:00:18.092Z,-0.16
2023-03-17T23:01:26.339Z,-0.15
2023-03-17T23:02:32.012Z,-0.16
2023-03-17T23:03:37.049Z,-0.17
2023-03-17T23:04:44.991Z,-0.24
2023-03-17T23:05:54.554Z,-0.21
2023-03-17T23:07:00.502Z,-0.25
2023-03-17T23:08:05.667Z,-0.28
2023-03-17T23:09:14.899Z,-0.23
2023-03-17T23:10:25.693Z,-0.23
2023-03-17T23:11:29.905Z,-0.25
2023-03-17T23:12:38.779Z,-0.28
2023-03-17T23:13:48.533Z,-0.27
2023-03-17T23:14:52.946Z,-0.27
2023-03-17T23:15:59.524Z,-0.29
2023-03-17T23:17:07.349Z,-0.27
2023-03-17T23:18:13.122Z,-0.30
2023-03-17T23:19:22.381Z,-0.27
2023-03-17T23:20:27.048Z,-0.26
2023-03-17T23:21:38.948Z,-0.30
2023-03-17T23:22:44.196Z,-0.33
2023-03-17T23:23:48.395Z,-0.32
2023-03-17T23:24:53.485Z,-0.34
2023-03-17T23:25:56.788Z,-0.30
2023-03-17T23:27:25.828Z,-0.36
2023-03-17T23:28:31.306Z,-0.36
2023-03-17T23:29:34.256Z,-0.42
2023-03-17T23:30:42.466Z,-0.39
2023-03-17T23:31:46.061Z,-0.37
2023-03-17T23:32:51.705Z,-0.41
2023-03-17T23:33:58.442Z,-0.37
2023-03-17T23:35:04.414Z,-0.37
2023-03-17T23:36:12.856Z,-0.39
2023-03-17T23:37:16.441Z,-0.44
2023-03-17T23:38:23.713Z,-0.38
2023-03-17T23:39:36.138Z,-0.42
2023-03-17T23:40:43.454Z,-0.40
2023-03-17T23:41:48.102Z,-0.45
2023-03-17T23:42:58.388Z,-0.39
2023-03-17T23:44:01.671Z,-0.46
2023-03-17T23:45:07.290Z,-0.47
2023-03-17T23:46:15.877Z,-0.47
2023-03-17T23:47:19.302Z,-0.50
2023-03-17T23:48:22.903Z,-0.46
2023-03-17T23:49:26.270Z,-0.47
2023-03-17T23:50:30.484Z,-0.50
2023-03-17T23:51:40.455Z,-0.49
2023-03-17T23:52:43.904Z,-0.50
2023-03-17T23:53:48.418Z,-0.53
2023-03-17T23:54:54.935Z,-0.52
2023-03-17T23:55:58.165Z,-0.55
2023-03-17T23:57:04.361Z,-0.54
2023-03-17T23:58:08.079Z,-0.54
2023-03-17T23:59:11.899Z,-0.56
